Time;durP1;ratioP1;P1;durP2;ratioP2;P2;SDS_P1;SDS_P2;PMS_P1;PMS_P2;Temp;Humidity;BMP_temperature;BMP_pressure;BME280_temperature;BME280_humidity;BME280_pressure;Samples;Min_cycle;Max_cycle;Signal;HPM_P1;HPM_P2
2021/03/23 00:01:37;;;;;;;0.20;0.00;;;20.90;38.40;;;;;;5052302;28;20033;-81
2021/03/23 00:04:05;;;;;;;1.20;0.10;;;20.90;38.40;;;;;;5043305;28;20396;-81
2021/03/23 00:06:30;;;;;;;0.20;0.10;;;20.90;38.40;;;;;;5039401;28;20029;-81
2021/03/23 00:08:59;;;;;;;0.13;0.00;;;20.90;38.40;;;;;;5038564;28;20415;-81
2021/03/23 00:11:36;;;;;;;0.88;0.00;;;20.90;38.40;;;;;;5043736;28;20052;-81
2021/03/23 00:14:06;;;;;;;0.82;0.10;;;20.90;38.40;;;;;;5057759;28;20106;-80
2021/03/23 00:16:34;;;;;;;0.30;0.00;;;20.90;38.40;;;;;;5023464;28;20029;-80
2021/03/23 00:19:00;;;;;;;0.30;0.00;;;20.90;38.40;;;;;;5038448;28;20049;-80
2021/03/23 00:21:27;;;;;;;0.75;0.10;;;20.90;38.40;;;;;;5044370;28;20028;-80
2021/03/23 00:23:53;;;;;;;0.10;0.00;;;20.80;38.40;;;;;;5039143;28;20024;-80
2021/03/23 00:26:20;;;;;;;0.10;0.00;;;20.80;38.40;;;;;;5040126;28;20134;-80
2021/03/23 00:28:47;;;;;;;0.10;0.00;;;20.80;38.40;;;;;;5056394;28;20077;-81
2021/03/23 00:31:18;;;;;;;0.40;0.05;;;20.80;38.40;;;;;;5044253;28;20021;-81
2021/03/23 00:33:44;;;;;;;1.67;0.00;;;20.80;38.40;;;;;;5050762;28;20020;-81
2021/03/23 00:36:12;;;;;;;0.17;0.00;;;20.80;38.40;;;;;;5050747;28;20072;-81
2021/03/23 00:38:39;;;;;;;0.93;0.03;;;20.70;38.40;;;;;;5042794;28;20512;-80
2021/03/23 00:41:07;;;;;;;0.03;0.00;;;20.70;38.40;;;;;;5069918;28;20511;-81
2021/03/23 00:43:33;;;;;;;0.35;0.00;;;20.70;38.40;;;;;;5056408;28;20833;-81
2021/03/23 00:45:58;;;;;;;0.55;0.00;;;20.70;38.40;;;;;;5023400;28;20029;-81
2021/03/23 00:48:24;;;;;;;0.10;0.00;;;20.70;38.50;;;;;;5037345;28;20026;-80
2021/03/23 00:50:50;;;;;;;0.28;0.00;;;20.70;38.50;;;;;;5058730;28;20032;-81
2021/03/23 00:53:16;;;;;;;0.20;0.00;;;20.70;38.40;;;;;;5046711;28;20027;-80
2021/03/23 00:55:42;;;;;;;0.10;0.00;;;20.70;38.40;;;;;;5044976;28;20060;-80
2021/03/23 00:58:07;;;;;;;0.20;0.00;;;20.70;38.40;;;;;;5031501;28;20549;-80
2021/03/23 01:00:33;;;;;;;0.20;0.00;;;20.70;38.40;;;;;;5061139;28;20096;-80
2021/03/23 01:02:59;;;;;;;0.20;0.00;;;20.70;38.50;;;;;;5045041;28;20115;-81
2021/03/23 01:05:28;;;;;;;0.20;0.00;;;20.60;38.40;;;;;;5056054;28;20072;-80
2021/03/23 01:07:53;;;;;;;0.10;0.00;;;20.60;38.50;;;;;;5050104;28;20021;-80
2021/03/23 01:10:23;;;;;;;0.88;0.15;;;20.60;38.50;;;;;;5064082;28;20433;-80
2021/03/23 01:12:48;;;;;;;0.10;0.00;;;20.60;38.50;;;;;;5029582;28;20218;-80
2021/03/23 01:15:18;;;;;;;0.10;0.00;;;20.60;38.50;;;;;;5025590;28;20505;-80
2021/03/23 01:17:44;;;;;;;0.30;0.00;;;20.60;38.50;;;;;;5058803;28;20064;-81
2021/03/23 01:20:12;;;;;;;0.30;0.00;;;20.60;38.50;;;;;;5058183;28;20504;-81
2021/03/23 01:22:38;;;;;;;0.22;0.00;;;20.50;38.40;;;;;;5034369;28;20021;-83
2021/03/23 01:25:06;;;;;;;0.30;0.10;;;20.60;38.50;;;;;;5039712;28;20021;-81
2021/03/23 01:27:32;;;;;;;0.20;0.05;;;20.50;38.40;;;;;;5045748;28;20021;-81
2021/03/23 01:29:57;;;;;;;0.40;0.10;;;20.50;38.40;;;;;;5055826;28;20127;-81
2021/03/23 01:32:23;;;;;;;0.73;0.10;;;20.50;38.30;;;;;;5057949;28;20031;-81
2021/03/23 01:34:49;;;;;;;0.08;0.00;;;20.50;38.40;;;;;;5041800;28;20090;-80
2021/03/23 01:37:15;;;;;;;0.57;0.20;;;20.50;38.40;;;;;;5037594;28;20020;-80
2021/03/23 01:39:42;;;;;;;0.60;0.05;;;20.50;38.30;;;;;;5032520;28;20514;-80
2021/03/23 01:42:10;;;;;;;0.75;0.10;;;20.50;38.30;;;;;;5055704;28;20032;-80
2021/03/23 01:44:42;;;;;;;0.43;0.10;;;20.50;38.30;;;;;;5036441;28;20029;-80
2021/03/23 01:47:08;;;;;;;0.90;0.17;;;20.50;38.30;;;;;;5026599;28;20068;-81
2021/03/23 01:49:39;;;;;;;0.25;0.10;;;20.50;38.30;;;;;;5042384;28;20032;-80
2021/03/23 01:52:09;;;;;;;0.30;0.00;;;20.50;38.30;;;;;;5040643;28;20032;-80
2021/03/23 01:54:55;;;;;;;0.52;0.10;;;20.50;38.30;;;;;;5062667;28;20709;-80
2021/03/23 01:57:21;;;;;;;0.17;0.00;;;20.50;38.30;;;;;;5061948;28;20370;-80
2021/03/23 01:59:52;;;;;;;0.40;0.00;;;20.40;38.30;;;;;;5065629;28;20139;-80
2021/03/23 02:02:21;;;;;;;0.40;0.10;;;20.40;38.30;;;;;;5045726;28;20042;-81
2021/03/23 02:04:46;;;;;;;1.38;0.10;;;20.40;38.30;;;;;;5032444;28;20287;-80
2021/03/23 02:07:12;;;;;;;0.35;0.10;;;20.40;38.30;;;;;;5051367;28;20028;-80
2021/03/23 02:09:38;;;;;;;0.43;0.00;;;20.40;38.30;;;;;;5052413;28;20040;-80
2021/03/23 02:12:26;;;;;;;0.40;0.10;;;20.40;38.30;;;;;;5065686;28;20614;-81
2021/03/23 02:14:52;;;;;;;0.30;0.00;;;20.40;38.40;;;;;;5067129;28;20033;-80
2021/03/23 02:17:37;;;;;;;0.22;0.03;;;20.40;38.30;;;;;;5061876;28;20029;-82
2021/03/23 02:20:11;;;;;;;0.20;0.00;;;20.40;38.40;;;;;;5042332;28;20401;-80
2021/03/23 02:22:43;;;;;;;0.28;0.08;;;20.40;38.40;;;;;;5045862;28;20028;-81
2021/03/23 02:25:19;;;;;;;0.30;0.08;;;20.30;38.30;;;;;;5063225;28;20028;-81
2021/03/23 02:27:45;;;;;;;0.38;0.10;;;20.40;38.40;;;;;;5057195;28;20021;-81
2021/03/23 02:30:37;;;;;;;0.38;0.00;;;20.30;38.30;;;;;;5030614;28;20028;-81
2021/03/23 02:33:03;;;;;;;0.70;0.10;;;20.30;38.30;;;;;;5043650;28;20045;-81
2021/03/23 02:35:31;;;;;;;0.20;0.08;;;20.30;38.30;;;;;;5040528;28;20100;-81
2021/03/23 02:37:57;;;;;;;0.60;0.10;;;20.30;38.30;;;;;;5060652;28;20568;-81
2021/03/23 02:40:23;;;;;;;0.45;0.10;;;20.30;38.30;;;;;;5049312;28;20396;-81
2021/03/23 02:42:49;;;;;;;0.30;0.10;;;20.30;38.30;;;;;;5059266;28;20115;-81
2021/03/23 02:45:15;;;;;;;0.25;0.00;;;20.30;38.30;;;;;;5025598;28;20462;-81
2021/03/23 02:47:41;;;;;;;0.40;0.10;;;20.30;38.20;;;;;;5029888;28;20396;-80
2021/03/23 02:50:07;;;;;;;0.30;0.10;;;20.30;38.20;;;;;;5058826;28;20037;-80
2021/03/23 02:52:33;;;;;;;0.30;0.10;;;20.30;38.10;;;;;;5056781;28;20059;-80
2021/03/23 02:54:58;;;;;;;0.20;0.00;;;20.30;38.20;;;;;;5041871;28;20028;-80
2021/03/23 02:57:24;;;;;;;0.20;0.00;;;20.20;38.20;;;;;;5018267;28;20159;-80
2021/03/23 02:59:49;;;;;;;2.00;0.08;;;20.30;38.20;;;;;;5038947;28;20040;-80
2021/03/23 03:02:15;;;;;;;0.20;0.10;;;20.30;38.70;;;;;;5049547;28;20108;-80
2021/03/23 03:04:41;;;;;;;0.10;0.00;;;20.20;38.20;;;;;;5039666;28;20029;-80
2021/03/23 03:07:06;;;;;;;0.40;0.10;;;20.20;38.20;;;;;;5039860;28;20392;-80
2021/03/23 03:09:32;;;;;;;0.30;0.10;;;20.20;38.20;;;;;;5025263;28;20150;-80
2021/03/23 03:11:57;;;;;;;0.30;0.00;;;20.20;38.20;;;;;;5058477;28;20104;-80
2021/03/23 03:14:23;;;;;;;0.17;0.00;;;20.20;38.20;;;;;;5037554;28;20043;-80
2021/03/23 03:16:49;;;;;;;0.20;0.10;;;20.20;38.20;;;;;;5036749;28;20097;-80
2021/03/23 03:19:15;;;;;;;0.20;0.00;;;20.20;38.30;;;;;;5063141;28;20484;-80
2021/03/23 03:21:42;;;;;;;0.20;0.10;;;20.20;38.30;;;;;;5021561;28;20032;-80
2021/03/23 03:24:08;;;;;;;0.20;0.00;;;20.20;38.20;;;;;;5047117;28;20052;-80
2021/03/23 03:26:34;;;;;;;0.10;0.00;;;20.20;38.20;;;;;;5023807;28;20033;-81
2021/03/23 03:29:00;;;;;;;0.38;0.08;;;20.20;38.20;;;;;;5042416;28;20033;-81
2021/03/23 03:31:28;;;;;;;0.30;0.10;;;20.20;38.20;;;;;;5017622;28;20017;-81
2021/03/23 03:33:55;;;;;;;0.25;0.05;;;20.20;38.20;;;;;;5037210;28;20599;-80
2021/03/23 03:36:23;;;;;;;2.28;0.00;;;20.20;38.20;;;;;;5040226;28;20032;-80
2021/03/23 03:38:50;;;;;;;0.55;0.10;;;20.10;38.20;;;;;;5037080;28;20765;-80
2021/03/23 03:41:15;;;;;;;0.25;0.10;;;20.20;38.30;;;;;;5059362;28;20043;-81
2021/03/23 03:43:41;;;;;;;0.20;0.00;;;20.10;38.20;;;;;;5018737;28;20097;-81
2021/03/23 03:46:08;;;;;;;0.20;0.00;;;20.10;38.20;;;;;;5024039;28;20536;-81
2021/03/23 03:48:34;;;;;;;0.10;0.00;;;20.10;38.20;;;;;;5041439;28;20021;-81
2021/03/23 03:50:59;;;;;;;0.43;0.10;;;20.10;38.20;;;;;;5031914;28;20029;-81
2021/03/23 03:53:25;;;;;;;0.38;0.00;;;20.10;38.20;;;;;;5039184;28;20073;-81
2021/03/23 03:55:52;;;;;;;0.10;0.00;;;20.10;38.20;;;;;;5056621;28;20094;-81
2021/03/23 03:58:18;;;;;;;0.20;0.08;;;20.10;38.10;;;;;;5064769;28;20033;-81
2021/03/23 04:00:44;;;;;;;0.30;0.10;;;20.10;38.20;;;;;;5040707;28;20610;-81
2021/03/23 04:03:26;;;;;;;0.10;0.00;;;20.10;38.20;;;;;;5046378;28;20036;-81
2021/03/23 04:05:53;;;;;;;0.10;0.00;;;20.10;38.20;;;;;;5043908;28;20032;-80
2021/03/23 04:08:22;;;;;;;0.10;0.00;;;20.10;38.20;;;;;;5044267;28;20503;-80
2021/03/23 04:10:48;;;;;;;2.03;0.10;;;20.10;38.20;;;;;;5061636;28;20029;-81
2021/03/23 04:13:15;;;;;;;0.20;0.00;;;20.10;38.30;;;;;;5045505;28;20025;-81
2021/03/23 04:15:44;;;;;;;0.55;0.10;;;20.10;38.20;;;;;;5049235;28;20032;-81
2021/03/23 04:18:13;;;;;;;0.38;0.00;;;20.10;38.20;;;;;;5056829;28;20492;-80
2021/03/23 04:20:39;;;;;;;0.60;0.00;;;20.10;38.20;;;;;;5058049;28;20586;-81
2021/03/23 04:23:07;;;;;;;0.20;0.00;;;20.00;38.20;;;;;;5041819;28;20040;-81
2021/03/23 04:25:33;;;;;;;0.28;0.10;;;20.00;38.20;;;;;;5059552;28;20033;-81
2021/03/23 04:28:00;;;;;;;0.50;0.10;;;20.00;38.10;;;;;;5048481;28;20053;-81
2021/03/23 04:30:26;;;;;;;0.28;0.03;;;20.00;38.20;;;;;;5043283;28;20090;-81
2021/03/23 04:32:54;;;;;;;0.20;0.00;;;20.00;38.20;;;;;;5044129;28;20032;-80
2021/03/23 04:35:39;;;;;;;0.32;0.00;;;20.00;38.10;;;;;;5061970;28;20553;-81
2021/03/23 04:38:05;;;;;;;0.95;0.00;;;20.00;38.20;;;;;;5043450;28;20389;-81
2021/03/23 04:40:31;;;;;;;0.40;0.03;;;20.00;38.20;;;;;;5027344;28;20033;-81
2021/03/23 04:42:57;;;;;;;0.28;0.00;;;20.00;38.20;;;;;;5054071;28;20028;-80
2021/03/23 04:45:22;;;;;;;0.65;0.00;;;20.00;38.20;;;;;;5045291;28;20036;-80
2021/03/23 04:47:48;;;;;;;0.50;0.10;;;20.00;38.10;;;;;;5062986;28;20048;-80
2021/03/23 04:50:16;;;;;;;0.10;0.00;;;20.00;38.10;;;;;;5048830;28;20476;-80
2021/03/23 04:52:42;;;;;;;0.22;0.00;;;20.00;38.20;;;;;;5059379;28;20025;-80
2021/03/23 04:55:08;;;;;;;0.45;0.10;;;20.00;38.20;;;;;;5059979;28;20029;-80
2021/03/23 04:57:33;;;;;;;0.75;0.00;;;19.90;38.10;;;;;;5064702;28;20519;-80
2021/03/23 04:59:59;;;;;;;0.30;0.05;;;20.00;38.20;;;;;;5068400;28;20029;-80
2021/03/23 05:02:24;;;;;;;0.50;0.05;;;19.90;38.20;;;;;;5042657;28;20582;-80
2021/03/23 05:04:50;;;;;;;0.20;0.00;;;20.00;38.20;;;;;;5061190;28;20139;-80
2021/03/23 05:07:15;;;;;;;0.20;0.03;;;19.90;38.20;;;;;;5026519;28;20437;-80
2021/03/23 05:09:41;;;;;;;0.43;0.10;;;19.90;38.20;;;;;;5033714;28;20096;-80
2021/03/23 05:12:08;;;;;;;0.95;0.10;;;19.90;38.20;;;;;;5058992;28;20030;-80
2021/03/23 05:14:33;;;;;;;0.10;0.00;;;19.90;38.10;;;;;;5060018;28;20028;-80
2021/03/23 05:16:59;;;;;;;0.43;0.10;;;19.90;38.10;;;;;;5059944;28;20028;-80
2021/03/23 05:19:24;;;;;;;0.30;0.10;;;19.90;38.10;;;;;;5039951;28;20059;-81
2021/03/23 05:21:50;;;;;;;0.22;0.10;;;19.90;38.10;;;;;;5062464;28;20029;-80
2021/03/23 05:24:16;;;;;;;0.25;0.00;;;19.90;38.10;;;;;;5059303;28;20032;-81
2021/03/23 05:26:41;;;;;;;0.15;0.05;;;19.90;38.10;;;;;;5061615;28;20025;-81
2021/03/23 05:29:07;;;;;;;0.50;0.10;;;19.90;38.20;;;;;;5047925;28;20373;-80
2021/03/23 05:31:33;;;;;;;0.38;0.00;;;19.90;38.10;;;;;;5064648;28;20024;-81
2021/03/23 05:33:59;;;;;;;1.20;0.00;;;19.90;38.20;;;;;;5030291;28;20029;-81
2021/03/23 05:36:25;;;;;;;0.00;0.00;;;19.90;38.70;;;;;;5046158;28;20155;-81
2021/03/23 05:38:51;;;;;;;0.15;0.00;;;19.90;38.10;;;;;;5042525;28;20036;-81
2021/03/23 05:41:51;;;;;;;0.50;0.10;;;19.90;38.20;;;;;;5044228;28;20105;-81
2021/03/23 05:44:42;;;;;;;0.10;0.00;;;19.90;38.20;;;;;;5044752;28;20033;-80
2021/03/23 05:47:17;;;;;;;3.97;0.10;;;19.90;38.20;;;;;;5060518;28;20021;-81
2021/03/23 05:49:59;;;;;;;0.20;0.08;;;19.90;38.20;;;;;;5066129;28;20021;-81
2021/03/23 05:52:46;;;;;;;0.20;0.10;;;19.90;38.10;;;;;;5054299;28;20509;-80
2021/03/23 05:55:24;;;;;;;0.40;0.10;;;19.90;38.10;;;;;;5043186;28;20025;-80
2021/03/23 05:57:51;;;;;;;0.30;0.10;;;19.90;38.20;;;;;;5063581;28;20036;-80
2021/03/23 06:00:25;;;;;;;0.10;0.00;;;19.90;38.10;;;;;;5060118;28;20079;-80
2021/03/23 06:03:05;;;;;;;0.10;0.00;;;19.80;38.10;;;;;;5026986;28;20578;-80
2021/03/23 06:05:37;;;;;;;0.20;0.00;;;19.80;38.10;;;;;;5043980;28;20036;-80
2021/03/23 06:08:06;;;;;;;0.40;0.10;;;19.80;38.10;;;;;;5064662;28;20028;-81
2021/03/23 06:10:32;;;;;;;0.35;0.00;;;19.80;38.10;;;;;;5050028;28;20028;-81
2021/03/23 06:13:32;;;;;;;0.43;0.10;;;19.80;38.10;;;;;;5046951;28;20083;-81
2021/03/23 06:16:36;;;;;;;0.20;0.00;;;19.80;38.10;;;;;;5064722;28;20068;-81
2021/03/23 06:19:22;;;;;;;0.10;0.00;;;19.80;38.10;;;;;;5059424;28;20428;-80
2021/03/23 06:21:59;;;;;;;0.20;0.00;;;19.80;38.20;;;;;;5040598;28;20110;-80
2021/03/23 06:24:33;;;;;;;0.35;0.10;;;19.80;38.30;;;;;;5042247;28;20036;-81
2021/03/23 06:27:22;;;;;;;0.45;0.05;;;19.80;38.30;;;;;;5061992;28;20067;-81
2021/03/23 06:30:13;;;;;;;0.25;0.10;;;19.80;38.30;;;;;;5047649;28;20384;-81
2021/03/23 06:32:53;;;;;;;0.68;0.20;;;19.70;38.30;;;;;;5038911;28;20021;-81
2021/03/23 06:35:21;;;;;;;0.63;0.13;;;19.80;38.40;;;;;;5052431;28;20025;-81
2021/03/23 06:37:46;;;;;;;0.60;0.10;;;19.80;38.40;;;;;;5054014;28;20032;-81
2021/03/23 06:40:23;;;;;;;0.40;0.10;;;19.80;38.50;;;;;;5063198;28;20056;-81
2021/03/23 06:42:52;;;;;;;0.30;0.10;;;19.80;38.60;;;;;;5040378;28;20051;-80
2021/03/23 06:45:27;;;;;;;0.85;0.28;;;19.90;38.40;;;;;;5020248;28;20079;-81
2021/03/23 06:47:55;;;;;;;0.75;0.20;;;20.00;38.60;;;;;;5034673;28;20032;-81
2021/03/23 06:50:31;;;;;;;1.05;0.30;;;20.20;37.80;;;;;;5051544;28;20021;-81
2021/03/23 06:53:14;;;;;;;1.10;0.20;;;20.30;37.40;;;;;;5052995;28;20087;-81
2021/03/23 06:55:47;;;;;;;1.42;0.30;;;20.50;37.20;;;;;;5045237;28;20033;-81
2021/03/23 06:58:27;;;;;;;1.92;0.20;;;20.60;37.10;;;;;;5034660;28;20032;-82
2021/03/23 07:01:14;;;;;;;1.17;0.20;;;20.70;36.90;;;;;;5059203;28;20155;-82
2021/03/23 07:03:41;;;;;;;0.95;0.20;;;20.70;36.80;;;;;;5038690;28;20062;-82
2021/03/23 07:06:21;;;;;;;1.10;0.30;;;20.80;36.70;;;;;;5042356;28;20032;-82
2021/03/23 07:09:12;;;;;;;1.80;0.22;;;20.90;36.80;;;;;;5039196;28;20086;-82
2021/03/23 07:12:03;;;;;;;0.40;0.30;;;20.90;36.80;;;;;;5040443;28;20066;-82
2021/03/23 07:14:41;;;;;;;0.80;0.20;;;20.90;36.70;;;;;;5025096;28;20021;-81
2021/03/23 07:17:09;;;;;;;1.00;0.32;;;21.00;36.70;;;;;;5032758;28;20127;-82
2021/03/23 07:20:10;;;;;;;1.00;0.20;;;21.00;36.60;;;;;;5040603;28;20025;-82
2021/03/23 07:22:49;;;;;;;0.32;0.10;;;21.10;36.60;;;;;;5057263;28;20347;-81
2021/03/23 07:25:37;;;;;;;1.13;0.38;;;21.10;36.60;;;;;;5040035;28;20039;-82
2021/03/23 07:28:21;;;;;;;0.50;0.20;;;21.10;36.60;;;;;;5048853;28;20070;-82
2021/03/23 07:31:11;;;;;;;1.30;0.20;;;21.20;36.60;;;;;;5046376;28;20025;-82
2021/03/23 07:33:39;;;;;;;1.58;0.22;;;21.20;36.60;;;;;;5067674;28;20515;-82
2021/03/23 07:36:08;;;;;;;1.38;0.28;;;21.20;36.60;;;;;;5050236;28;20119;-82
2021/03/23 07:38:42;;;;;;;0.45;0.20;;;21.20;36.60;;;;;;5043722;28;20500;-82
2021/03/23 07:41:29;;;;;;;0.95;0.30;;;21.20;36.60;;;;;;5067538;28;20418;-82
2021/03/23 07:44:11;;;;;;;0.80;0.20;;;21.20;36.80;;;;;;5022844;28;20143;-82
2021/03/23 07:46:44;;;;;;;0.50;0.20;;;21.10;36.70;;;;;;5026863;28;20302;-82
2021/03/23 07:49:34;;;;;;;2.80;0.28;;;21.10;36.80;;;;;;5031713;28;20028;-82
2021/03/23 07:52:04;;;;;;;0.50;0.20;;;21.10;36.90;;;;;;5045859;28;20028;-82
2021/03/23 07:54:36;;;;;;;1.08;0.20;;;21.10;36.90;;;;;;5029450;28;20057;-81
2021/03/23 07:57:11;;;;;;;0.63;0.20;;;21.10;37.00;;;;;;5040726;28;20078;-82
2021/03/23 07:59:55;;;;;;;1.17;0.20;;;21.00;37.00;;;;;;5041189;28;20033;-82
2021/03/23 08:02:43;;;;;;;2.42;0.52;;;21.00;37.00;;;;;;5068284;28;20444;-82
2021/03/23 08:05:12;;;;;;;0.70;0.20;;;21.00;37.10;;;;;;5071398;28;20033;-82
2021/03/23 08:07:53;;;;;;;3.60;0.20;;;21.00;37.10;;;;;;5041224;28;20032;-82
2021/03/23 08:10:34;;;;;;;1.90;0.30;;;20.90;37.10;;;;;;5069418;28;20036;-82
2021/03/23 08:13:21;;;;;;;0.30;0.20;;;21.00;37.20;;;;;;5072640;28;20025;-82
2021/03/23 08:16:01;;;;;;;1.00;0.20;;;20.90;37.20;;;;;;5048847;28;20488;-82
2021/03/23 08:19:05;;;;;;;1.70;0.32;;;20.90;37.20;;;;;;5040891;28;20109;-82
2021/03/23 08:21:56;;;;;;;0.60;0.20;;;20.90;37.20;;;;;;5062813;28;20025;-82
2021/03/23 08:24:35;;;;;;;0.88;0.30;;;20.90;37.30;;;;;;5058090;28;20025;-82
2021/03/23 08:27:21;;;;;;;1.38;0.20;;;20.90;37.30;;;;;;5059351;28;20082;-82
2021/03/23 08:30:23;;;;;;;0.80;0.40;;;20.90;37.40;;;;;;5056309;28;20029;-83
2021/03/23 08:33:02;;;;;;;1.23;0.28;;;20.80;37.30;;;;;;5044027;28;20496;-82
2021/03/23 08:35:49;;;;;;;0.70;0.30;;;20.80;37.30;;;;;;5030862;28;20149;-82
2021/03/23 08:38:50;;;;;;;1.08;0.30;;;20.80;37.40;;;;;;5040425;28;20025;-82
2021/03/23 08:41:34;;;;;;;1.00;0.20;;;20.80;37.40;;;;;;5063620;28;20049;-82
2021/03/23 08:44:00;;;;;;;1.63;0.40;;;20.80;37.50;;;;;;5024454;28;20043;-82
2021/03/23 08:46:33;;;;;;;1.02;0.40;;;20.80;37.50;;;;;;5056668;28;20658;-82
2021/03/23 08:49:02;;;;;;;1.23;0.40;;;20.70;37.50;;;;;;5049410;28;20021;-82
2021/03/23 08:51:30;;;;;;;1.35;0.43;;;20.80;37.60;;;;;;5062098;28;20551;-83
2021/03/23 08:54:04;;;;;;;1.65;0.40;;;20.70;37.60;;;;;;5041732;28;20025;-82
2021/03/23 08:56:41;;;;;;;1.90;0.90;;;20.70;37.50;;;;;;5056878;28;20028;-83
2021/03/23 08:59:38;;;;;;;1.98;0.75;;;20.70;37.60;;;;;;5022502;28;20062;-82
2021/03/23 09:02:07;;;;;;;1.77;0.73;;;20.70;37.60;;;;;;5022735;28;20081;-82
2021/03/23 09:04:34;;;;;;;1.98;0.70;;;20.70;37.60;;;;;;5057520;28;20032;-82
2021/03/23 09:07:13;;;;;;;2.78;0.70;;;20.70;37.60;;;;;;5027210;28;20377;-82
2021/03/23 09:09:48;;;;;;;0.98;0.50;;;20.70;37.70;;;;;;5045137;28;20127;-82
2021/03/23 09:12:42;;;;;;;1.52;0.88;;;20.70;37.70;;;;;;5040431;28;20484;-82
2021/03/23 09:15:25;;;;;;;1.75;0.95;;;20.70;37.70;;;;;;5024599;28;20033;-82
2021/03/23 09:18:17;;;;;;;2.38;0.75;;;20.80;37.70;;;;;;5020649;28;20044;-82
2021/03/23 09:20:43;;;;;;;1.55;0.60;;;20.90;37.60;;;;;;5042935;28;20056;-82
2021/03/23 09:23:21;;;;;;;2.20;0.40;;;21.00;37.40;;;;;;5055559;28;20105;-82
2021/03/23 09:25:59;;;;;;;1.65;0.35;;;21.20;37.30;;;;;;5054142;28;20032;-82
2021/03/23 09:28:44;;;;;;;1.50;0.60;;;21.30;37.20;;;;;;5044838;28;20487;-82
2021/03/23 09:31:57;;;;;;;2.80;0.88;;;21.40;37.10;;;;;;5054530;28;20025;-82
2021/03/23 09:35:00;;;;;;;3.00;0.98;;;21.50;37.00;;;;;;5049047;28;20095;-82
2021/03/23 09:37:32;;;;;;;1.75;0.68;;;21.60;37.00;;;;;;5029020;28;20029;-82
2021/03/23 09:39:58;;;;;;;2.70;1.10;;;21.60;36.90;;;;;;5035992;28;20021;-82
2021/03/23 09:42:36;;;;;;;4.68;0.77;;;21.70;36.90;;;;;;5042186;28;20021;-82
2021/03/23 09:45:21;;;;;;;2.85;0.90;;;21.70;36.90;;;;;;5052163;28;20052;-82
2021/03/23 09:47:55;;;;;;;2.55;0.82;;;21.80;36.90;;;;;;5030827;28;20687;-82
2021/03/23 09:50:42;;;;;;;5.35;1.20;;;21.80;36.80;;;;;;5029585;28;20017;-82
2021/03/23 09:53:13;;;;;;;3.60;1.00;;;21.90;36.90;;;;;;5038820;28;20039;-82
2021/03/23 09:55:40;;;;;;;2.40;1.13;;;21.90;36.90;;;;;;5020247;28;20036;-82
2021/03/23 09:58:15;;;;;;;4.88;1.30;;;21.90;36.90;;;;;;5038707;28;20039;-82
2021/03/23 10:00:41;;;;;;;2.63;1.20;;;21.90;36.90;;;;;;5060453;28;20099;-82
2021/03/23 10:03:34;;;;;;;1.92;0.88;;;21.90;36.90;;;;;;5041322;28;20052;-82
2021/03/23 10:06:09;;;;;;;3.65;1.65;;;21.90;36.90;;;;;;5037672;28;20036;-82
2021/03/23 10:08:36;;;;;;;1.55;0.98;;;21.90;37.00;;;;;;5045157;28;20040;-82
2021/03/23 10:11:14;;;;;;;1.63;1.00;;;21.90;37.10;;;;;;5041479;28;20028;-82
2021/03/23 10:13:54;;;;;;;1.80;1.13;;;21.90;37.20;;;;;;5041158;28;20025;-82
2021/03/23 10:16:31;;;;;;;1.92;1.20;;;21.90;37.20;;;;;;5022900;28;20113;-82
2021/03/23 10:19:06;;;;;;;2.35;1.25;;;21.90;37.20;;;;;;5043533;28;20033;-82
2021/03/23 10:21:34;;;;;;;2.65;0.95;;;21.90;37.20;;;;;;5021455;28;20032;-82
2021/03/23 10:24:04;;;;;;;4.53;1.55;;;21.90;37.20;;;;;;5039458;28;20488;-82
2021/03/23 10:26:38;;;;;;;3.33;1.45;;;21.90;37.20;;;;;;5023256;28;20054;-82
2021/03/23 10:29:18;;;;;;;2.83;1.30;;;21.90;37.20;;;;;;5039884;28;20060;-82
2021/03/23 10:31:51;;;;;;;2.53;1.40;;;21.90;37.30;;;;;;5027287;28;20033;-82
2021/03/23 10:34:23;;;;;;;3.50;1.20;;;21.90;37.30;;;;;;5022506;28;20056;-82
2021/03/23 10:37:01;;;;;;;4.70;1.20;;;21.90;37.30;;;;;;5038640;28;20021;-82
2021/03/23 10:39:34;;;;;;;2.58;1.25;;;21.90;37.30;;;;;;5052409;28;20107;-82
2021/03/23 10:42:01;;;;;;;3.88;1.55;;;21.90;37.30;;;;;;5043388;28;20029;-82
2021/03/23 10:44:30;;;;;;;3.90;1.63;;;21.90;37.30;;;;;;5052573;28;20017;-82
2021/03/23 10:46:59;;;;;;;1.98;0.90;;;21.80;37.30;;;;;;5040126;28;20017;-82
2021/03/23 10:49:29;;;;;;;3.15;1.70;;;21.80;37.40;;;;;;5038647;28;20033;-82
2021/03/23 10:52:17;;;;;;;1.75;0.88;;;21.80;37.50;;;;;;5035942;28;20091;-82
2021/03/23 10:54:42;;;;;;;3.30;2.10;;;21.80;37.50;;;;;;5039057;28;20021;-82
2021/03/23 10:57:35;;;;;;;2.60;1.60;;;21.70;37.50;;;;;;5041739;28;20032;-82
2021/03/23 11:00:34;;;;;;;4.97;1.60;;;21.70;37.50;;;;;;5058083;28;20025;-82
2021/03/23 11:03:14;;;;;;;4.13;1.25;;;21.70;37.50;;;;;;5057530;28;20393;-81
2021/03/23 11:05:48;;;;;;;3.05;1.77;;;21.70;37.60;;;;;;5037688;28;20108;-82
2021/03/23 11:08:15;;;;;;;1.73;1.13;;;21.70;37.60;;;;;;5021751;28;20103;-82
2021/03/23 11:10:42;;;;;;;2.70;1.10;;;21.70;37.60;;;;;;5057422;28;20017;-82
2021/03/23 11:13:09;;;;;;;2.40;1.23;;;21.70;37.60;;;;;;5039094;28;20021;-82
2021/03/23 11:15:38;;;;;;;2.78;1.63;;;21.70;37.60;;;;;;5044088;28;20034;-82
2021/03/23 11:18:10;;;;;;;3.70;1.75;;;21.60;37.60;;;;;;5047099;28;20493;-82
2021/03/23 11:20:40;;;;;;;3.35;0.80;;;21.60;37.60;;;;;;5058995;28;20053;-81
2021/03/23 11:23:25;;;;;;;2.55;1.63;;;21.60;37.70;;;;;;5039999;28;20054;-82
2021/03/23 11:25:51;;;;;;;1.98;1.23;;;21.70;37.70;;;;;;5033535;28;20032;-82
2021/03/23 11:28:18;;;;;;;3.40;1.83;;;21.70;37.70;;;;;;5063237;28;20052;-82
2021/03/23 11:30:44;;;;;;;1.52;1.00;;;21.70;37.70;;;;;;5026327;28;20469;-82
2021/03/23 11:33:14;;;;;;;3.28;1.30;;;21.60;37.60;;;;;;5039869;28;20026;-82
2021/03/23 11:35:44;;;;;;;4.03;1.42;;;21.60;37.70;;;;;;5026348;28;20047;-82
2021/03/23 11:38:10;;;;;;;2.70;1.33;;;21.60;37.70;;;;;;5051709;28;20484;-82
2021/03/23 11:40:35;;;;;;;2.30;1.35;;;21.60;37.80;;;;;;5032698;28;20105;-82
2021/03/23 11:43:01;;;;;;;1.38;0.85;;;21.60;37.80;;;;;;5074508;28;20047;-82
2021/03/23 11:45:42;;;;;;;2.75;1.17;;;21.50;37.80;;;;;;5039861;28;20021;-82
2021/03/23 11:48:11;;;;;;;2.57;1.37;;;21.50;37.80;;;;;;5035053;28;20025;-82
2021/03/23 11:50:39;;;;;;;3.70;1.50;;;21.50;37.90;;;;;;5049711;28;20283;-82
2021/03/23 11:53:06;;;;;;;1.38;1.00;;;21.50;37.90;;;;;;5063254;28;20031;-82
2021/03/23 11:55:35;;;;;;;3.08;1.00;;;21.50;37.90;;;;;;5054199;28;20064;-82
2021/03/23 11:58:03;;;;;;;2.92;1.73;;;21.50;37.90;;;;;;5046248;28;20118;-82
2021/03/23 12:00:29;;;;;;;1.92;1.35;;;21.50;37.90;;;;;;5029063;28;20025;-82
2021/03/23 12:03:04;;;;;;;2.65;1.42;;;21.50;37.90;;;;;;5026847;28;20162;-82
2021/03/23 12:05:30;;;;;;;1.65;0.88;;;21.50;38.00;;;;;;5048495;28;20033;-83
2021/03/23 12:08:03;;;;;;;2.30;1.60;;;21.50;38.00;;;;;;5043422;28;20032;-83
2021/03/23 12:10:33;;;;;;;1.52;0.93;;;21.50;38.00;;;;;;5058287;28;20171;-82
2021/03/23 12:13:08;;;;;;;2.22;1.05;;;21.50;38.00;;;;;;5020369;28;20119;-82
2021/03/23 12:15:42;;;;;;;3.88;1.40;;;21.50;38.00;;;;;;5030523;28;20048;-82
2021/03/23 12:18:16;;;;;;;1.40;1.17;;;21.50;38.00;;;;;;5034614;28;20044;-82
2021/03/23 12:20:43;;;;;;;2.22;1.50;;;21.40;37.90;;;;;;5044728;28;20024;-83
2021/03/23 12:23:09;;;;;;;2.72;1.20;;;21.50;38.00;;;;;;5051038;28;20036;-82
2021/03/23 12:25:35;;;;;;;3.33;1.48;;;21.50;38.00;;;;;;5048332;28;20033;-82
2021/03/23 12:28:01;;;;;;;2.55;1.27;;;21.50;38.00;;;;;;5041661;28;20027;-82
2021/03/23 12:30:27;;;;;;;1.75;1.15;;;21.40;38.00;;;;;;5034766;28;20175;-82
2021/03/23 12:32:57;;;;;;;2.50;1.40;;;21.40;38.00;;;;;;5045341;28;20033;-82
2021/03/23 12:35:26;;;;;;;2.20;1.83;;;21.40;38.00;;;;;;5049038;28;20032;-83
2021/03/23 12:37:59;;;;;;;2.42;1.67;;;21.40;38.10;;;;;;5059856;28;20056;-83
2021/03/23 12:40:26;;;;;;;2.15;1.50;;;21.40;38.20;;;;;;5029626;28;20540;-82
2021/03/23 12:42:53;;;;;;;1.92;1.05;;;21.40;38.20;;;;;;5054527;28;20396;-82
2021/03/23 12:45:23;;;;;;;2.25;1.25;;;21.50;38.00;;;;;;5029546;28;20721;-82
2021/03/23 12:47:49;;;;;;;1.83;1.33;;;21.60;37.90;;;;;;5052038;28;20104;-82
2021/03/23 12:50:15;;;;;;;1.77;1.08;;;21.60;37.70;;;;;;5042031;28;20056;-82
2021/03/23 12:52:42;;;;;;;1.83;0.70;;;21.70;37.70;;;;;;5053065;28;20699;-82
2021/03/23 12:55:14;;;;;;;2.13;1.30;;;21.80;37.50;;;;;;5045217;28;20020;-82
2021/03/23 12:57:41;;;;;;;1.48;0.88;;;21.90;37.40;;;;;;5059102;28;20090;-82
2021/03/23 13:00:14;;;;;;;1.00;0.73;;;22.00;37.40;;;;;;5037325;28;20078;-82
2021/03/23 13:02:40;;;;;;;1.58;0.80;;;22.10;37.20;;;;;;5040184;28;20063;-82
2021/03/23 13:05:06;;;;;;;2.30;0.75;;;22.20;37.10;;;;;;5040506;28;20389;-82
2021/03/23 13:07:37;;;;;;;1.17;0.50;;;22.20;37.00;;;;;;5039953;28;20013;-82
2021/03/23 13:10:12;;;;;;;1.10;0.70;;;22.30;36.90;;;;;;5017214;28;20021;-82
2021/03/23 13:12:38;;;;;;;1.02;0.73;;;22.40;36.90;;;;;;5042311;28;20033;-82
2021/03/23 13:15:04;;;;;;;1.85;0.80;;;22.40;36.90;;;;;;5032154;28;20048;-82